Cherry Hills Village, CO

10:58 AM MDT on May 27, 2015 (GMT -0600)
South Broadway Heights | | Change Station
CLOSE
Current Station
Personal Weather Station
Location: Englewood, CO
Elevation: 5387 ft
Nearby Weather Stations

Elev 5387 ft 39.65 °N, 104.98 °W | Updated 3 minutes ago

Partly Cloudy
Partly Cloudy
72.1 °F
Feels Like 77 °F
N
1.0
Wind Variable Wind from NE
Gusts 1.0 mph

Today
High -- | Low -- °F
--% Chance of Precip.
Yesterday
High -- | Low -- °F
Precip. -- in
5:36 AM 8:17 PM
Waxing Gibbous, 68% visible
Pressure 29.95 in
Visibility 10.0 miles
Clouds Few 9000 ft
Scattered Clouds 15000 ft
Mostly Cloudy 20000 ft
Heat Index 77 °F
Dew Point 42 °F
Humidity 34%
Rainfall 0.00 in
Snow Depth Not available.
UV 5 out of 12
Pollen 8.00 out of 12
Air Quality Not available.
Flu Activity Sporadic
METAR KAPA 271653Z 30008KT 10SM FEW090 SCT150 BKN200 21/03 A3009 RMK AO2 SLP140 T02060028

More Conditions Fewer Conditions

Pressure 29.95 in
Visibility 10.0 miles
Clouds Few 9000 ft
Scattered Clouds 15000 ft
Mostly Cloudy 20000 ft
Heat Index 77 °F
Dew Point 42 °F
Humidity 34%
Rainfall 0.00 in
Snow Depth Not available.
UV 5 out of 12
Pollen 8.00 out of 12
Air Quality Not available.
Flu Activity Sporadic
METAR KAPA 271653Z 30008KT 10SM FEW090 SCT150 BKN200 21/03 A3009 RMK AO2 SLP140 T02060028

More Conditions Fewer Conditions

10-Day Weather Forecast

Almanac

Astronomy

May. 27, 2015 Rise Set
Actual Time
Civil Twilight
Nautical Twilight
Astronomical Twilight
Moon
Length of Visible Light
Length of Day
Tomorrow will be .
, % of the Moon is Illuminated

Today's Extremes

State Highs State Lows

Community

WunderPhotos

Upload Photos

1,824,720 photos uploaded!

WunderBlogs® & News

Nearby

Air Quality

  Air Quality AQ Index Pollutant
Not available.

Snow Depth

Station Depth Elevation

Earthquake Activity

City Distance Mag. Time & Date
Minimum magnitude displayed is 2.5.

Coastal Water Temperatures

Place Temperature

Stations

Nearby Weather Stations

Station Location Temp. Windchill Dew Point Humidity Wind Precip. Elev Updated Type